sensor_id;sensor_type;location;lat;lon;timestamp;P1;durP1;ratioP1;P2;durP2;ratioP2
75488;SDS011;64069;46.396;48.102;2024-03-17T00:02:23;114.68;;;14.23;;
75488;SDS011;64069;46.396;48.102;2024-03-17T00:04:49;120.80;;;14.95;;
75488;SDS011;64069;46.396;48.102;2024-03-17T00:07:15;123.00;;;15.40;;
75488;SDS011;64069;46.396;48.102;2024-03-17T00:09:41;107.95;;;10.45;;
75488;SDS011;64069;46.396;48.102;2024-03-17T00:12:07;146.32;;;15.63;;
75488;SDS011;64069;46.396;48.102;2024-03-17T00:14:34;111.07;;;14.27;;
75488;SDS011;64069;46.396;48.102;2024-03-17T00:17:00;118.85;;;11.40;;
75488;SDS011;64069;46.396;48.102;2024-03-17T00:19:26;136.60;;;15.85;;
75488;SDS011;64069;46.396;48.102;2024-03-17T00:21:53;104.28;;;11.55;;
75488;SDS011;64069;46.396;48.102;2024-03-17T00:24:19;116.35;;;12.60;;
75488;SDS011;64069;46.396;48.102;2024-03-17T00:26:46;127.22;;;14.55;;
75488;SDS011;64069;46.396;48.102;2024-03-17T00:29:12;114.45;;;15.02;;
75488;SDS011;64069;46.396;48.102;2024-03-17T00:31:40;123.75;;;14.05;;
75488;SDS011;64069;46.396;48.102;2024-03-17T00:34:07;116.55;;;14.02;;
75488;SDS011;64069;46.396;48.102;2024-03-17T00:36:33;121.80;;;16.05;;
75488;SDS011;64069;46.396;48.102;2024-03-17T00:38:59;92.22;;;11.13;;
75488;SDS011;64069;46.396;48.102;2024-03-17T00:41:25;119.65;;;11.82;;
75488;SDS011;64069;46.396;48.102;2024-03-17T00:43:51;131.10;;;15.07;;
75488;SDS011;64069;46.396;48.102;2024-03-17T00:46:21;111.88;;;11.38;;
75488;SDS011;64069;46.396;48.102;2024-03-17T00:48:48;90.03;;;9.98;;
75488;SDS011;64069;46.396;48.102;2024-03-17T00:51:14;92.57;;;12.80;;
75488;SDS011;64069;46.396;48.102;2024-03-17T00:53:41;96.82;;;12.27;;
75488;SDS011;64069;46.396;48.102;2024-03-17T00:56:07;101.28;;;11.88;;
75488;SDS011;64069;46.396;48.102;2024-03-17T00:58:33;101.00;;;10.60;;
75488;SDS011;64069;46.396;48.102;2024-03-17T01:00:59;119.88;;;12.73;;
75488;SDS011;64069;46.396;48.102;2024-03-17T01:03:25;93.47;;;11.05;;
75488;SDS011;64069;46.396;48.102;2024-03-17T01:05:53;94.55;;;10.40;;
75488;SDS011;64069;46.396;48.102;2024-03-17T01:08:19;113.25;;;12.30;;
75488;SDS011;64069;46.396;48.102;2024-03-17T01:10:46;95.10;;;11.50;;
75488;SDS011;64069;46.396;48.102;2024-03-17T01:13:15;101.28;;;10.68;;
75488;SDS011;64069;46.396;48.102;2024-03-17T01:15:41;88.95;;;10.43;;
75488;SDS011;64069;46.396;48.102;2024-03-17T01:18:07;108.75;;;10.45;;
75488;SDS011;64069;46.396;48.102;2024-03-17T01:20:37;107.53;;;11.95;;
75488;SDS011;64069;46.396;48.102;2024-03-17T01:23:03;97.28;;;9.35;;
75488;SDS011;64069;46.396;48.102;2024-03-17T01:25:30;86.22;;;9.25;;
75488;SDS011;64069;46.396;48.102;2024-03-17T01:27:56;77.40;;;9.32;;
75488;SDS011;64069;46.396;48.102;2024-03-17T01:30:22;106.30;;;10.52;;
75488;SDS011;64069;46.396;48.102;2024-03-17T01:32:50;89.78;;;10.52;;
75488;SDS011;64069;46.396;48.102;2024-03-17T01:35:17;87.80;;;8.70;;
75488;SDS011;64069;46.396;48.102;2024-03-17T01:37:43;96.18;;;9.73;;
75488;SDS011;64069;46.396;48.102;2024-03-17T01:40:09;99.47;;;10.68;;
75488;SDS011;64069;46.396;48.102;2024-03-17T01:42:36;85.55;;;9.95;;
75488;SDS011;64069;46.396;48.102;2024-03-17T01:48:00;94.45;;;11.48;;
75488;SDS011;64069;46.396;48.102;2024-03-17T01:50:37;99.70;;;11.95;;
75488;SDS011;64069;46.396;48.102;2024-03-17T01:53:05;84.93;;;8.27;;
75488;SDS011;64069;46.396;48.102;2024-03-17T01:55:32;72.00;;;12.05;;
75488;SDS011;64069;46.396;48.102;2024-03-17T01:58:01;77.55;;;7.63;;
75488;SDS011;64069;46.396;48.102;2024-03-17T02:00:28;111.03;;;12.27;;
75488;SDS011;64069;46.396;48.102;2024-03-17T02:02:56;77.38;;;10.18;;
75488;SDS011;64069;46.396;48.102;2024-03-17T02:05:22;81.85;;;9.73;;
75488;SDS011;64069;46.396;48.102;2024-03-17T02:07:48;77.20;;;11.48;;
75488;SDS011;64069;46.396;48.102;2024-03-17T02:10:15;72.93;;;7.47;;
75488;SDS011;64069;46.396;48.102;2024-03-17T02:12:41;82.13;;;9.07;;
75488;SDS011;64069;46.396;48.102;2024-03-17T02:15:07;71.70;;;9.60;;
75488;SDS011;64069;46.396;48.102;2024-03-17T02:17:34;109.45;;;12.10;;
75488;SDS011;64069;46.396;48.102;2024-03-17T02:20:00;90.47;;;9.77;;
75488;SDS011;64069;46.396;48.102;2024-03-17T02:22:26;101.15;;;11.55;;
75488;SDS011;64069;46.396;48.102;2024-03-17T02:24:55;99.72;;;10.00;;
75488;SDS011;64069;46.396;48.102;2024-03-17T02:27:21;75.50;;;12.02;;
75488;SDS011;64069;46.396;48.102;2024-03-17T02:29:47;94.63;;;10.93;;
75488;SDS011;64069;46.396;48.102;2024-03-17T02:32:13;77.40;;;8.88;;
75488;SDS011;64069;46.396;48.102;2024-03-17T02:34:39;89.30;;;10.13;;
75488;SDS011;64069;46.396;48.102;2024-03-17T02:37:06;96.60;;;11.27;;
75488;SDS011;64069;46.396;48.102;2024-03-17T02:39:33;108.53;;;13.07;;
75488;SDS011;64069;46.396;48.102;2024-03-17T02:42:03;86.70;;;10.10;;
75488;SDS011;64069;46.396;48.102;2024-03-17T02:44:31;98.17;;;12.97;;
75488;SDS011;64069;46.396;48.102;2024-03-17T02:46:58;95.53;;;9.50;;
75488;SDS011;64069;46.396;48.102;2024-03-17T02:49:25;100.43;;;10.07;;
75488;SDS011;64069;46.396;48.102;2024-03-17T02:52:09;77.20;;;10.02;;
75488;SDS011;64069;46.396;48.102;2024-03-17T02:54:37;80.32;;;10.50;;
75488;SDS011;64069;46.396;48.102;2024-03-17T02:57:04;93.72;;;10.93;;
75488;SDS011;64069;46.396;48.102;2024-03-17T02:59:30;73.85;;;10.90;;
75488;SDS011;64069;46.396;48.102;2024-03-17T03:01:56;137.82;;;12.32;;
75488;SDS011;64069;46.396;48.102;2024-03-17T03:04:23;96.80;;;9.50;;
75488;SDS011;64069;46.396;48.102;2024-03-17T03:06:49;82.18;;;9.93;;
75488;SDS011;64069;46.396;48.102;2024-03-17T03:09:15;92.60;;;10.25;;
75488;SDS011;64069;46.396;48.102;2024-03-17T03:11:47;101.15;;;10.05;;
75488;SDS011;64069;46.396;48.102;2024-03-17T03:14:13;48.08;;;6.90;;
75488;SDS011;64069;46.396;48.102;2024-03-17T03:16:39;88.05;;;9.30;;
75488;SDS011;64069;46.396;48.102;2024-03-17T03:19:05;86.93;;;11.38;;
75488;SDS011;64069;46.396;48.102;2024-03-17T03:21:31;79.28;;;12.07;;
75488;SDS011;64069;46.396;48.102;2024-03-17T03:23:57;118.32;;;13.80;;
75488;SDS011;64069;46.396;48.102;2024-03-17T03:26:23;97.53;;;10.98;;
75488;SDS011;64069;46.396;48.102;2024-03-17T03:28:49;86.55;;;10.02;;
75488;SDS011;64069;46.396;48.102;2024-03-17T03:31:15;105.75;;;10.43;;
75488;SDS011;64069;46.396;48.102;2024-03-17T03:33:42;89.40;;;11.50;;
75488;SDS011;64069;46.396;48.102;2024-03-17T03:36:12;101.97;;;10.35;;
75488;SDS011;64069;46.396;48.102;2024-03-17T03:38:40;93.75;;;11.27;;
75488;SDS011;64069;46.396;48.102;2024-03-17T03:41:09;88.97;;;10.45;;
75488;SDS011;64069;46.396;48.102;2024-03-17T03:43:37;94.85;;;11.85;;
75488;SDS011;64069;46.396;48.102;2024-03-17T03:46:03;81.20;;;10.07;;
75488;SDS011;64069;46.396;48.102;2024-03-17T03:48:30;81.22;;;10.93;;
75488;SDS011;64069;46.396;48.102;2024-03-17T03:50:56;98.50;;;13.30;;
75488;SDS011;64069;46.396;48.102;2024-03-17T03:53:22;81.68;;;10.30;;
75488;SDS011;64069;46.396;48.102;2024-03-17T03:55:48;105.85;;;11.88;;
75488;SDS011;64069;46.396;48.102;2024-03-17T03:58:14;103.90;;;11.15;;
75488;SDS011;64069;46.396;48.102;2024-03-17T04:00:40;79.40;;;10.55;;
75488;SDS011;64069;46.396;48.102;2024-03-17T04:03:07;72.43;;;9.68;;
75488;SDS011;64069;46.396;48.102;2024-03-17T04:05:33;103.03;;;11.13;;
75488;SDS011;64069;46.396;48.102;2024-03-17T04:07:59;114.00;;;14.15;;
75488;SDS011;64069;46.396;48.102;2024-03-17T04:10:26;76.50;;;9.35;;
75488;SDS011;64069;46.396;48.102;2024-03-17T04:12:52;87.72;;;10.77;;
75488;SDS011;64069;46.396;48.102;2024-03-17T04:15:18;97.80;;;10.63;;
75488;SDS011;64069;46.396;48.102;2024-03-17T04:17:45;105.68;;;9.48;;
75488;SDS011;64069;46.396;48.102;2024-03-17T04:20:11;92.90;;;10.80;;
75488;SDS011;64069;46.396;48.102;2024-03-17T04:22:40;113.22;;;13.45;;
75488;SDS011;64069;46.396;48.102;2024-03-17T04:25:08;114.68;;;12.48;;
75488;SDS011;64069;46.396;48.102;2024-03-17T04:27:34;90.30;;;12.18;;
75488;SDS011;64069;46.396;48.102;2024-03-17T04:30:00;100.35;;;12.90;;
75488;SDS011;64069;46.396;48.102;2024-03-17T04:32:31;95.05;;;14.18;;
75488;SDS011;64069;46.396;48.102;2024-03-17T04:34:57;120.63;;;12.68;;
75488;SDS011;64069;46.396;48.102;2024-03-17T04:37:23;106.35;;;15.50;;
75488;SDS011;64069;46.396;48.102;2024-03-17T04:39:50;111.40;;;13.95;;
75488;SDS011;64069;46.396;48.102;2024-03-17T04:42:17;117.28;;;15.32;;
75488;SDS011;64069;46.396;48.102;2024-03-17T04:44:43;136.05;;;15.73;;
75488;SDS011;64069;46.396;48.102;2024-03-17T04:47:10;103.35;;;13.73;;
75488;SDS011;64069;46.396;48.102;2024-03-17T04:49:38;121.43;;;16.70;;
75488;SDS011;64069;46.396;48.102;2024-03-17T04:52:05;126.40;;;13.20;;
75488;SDS011;64069;46.396;48.102;2024-03-17T04:54:32;130.50;;;15.73;;
75488;SDS011;64069;46.396;48.102;2024-03-17T04:56:58;150.40;;;17.20;;
75488;SDS011;64069;46.396;48.102;2024-03-17T04:59:24;113.20;;;13.07;;
75488;SDS011;64069;46.396;48.102;2024-03-17T05:01:51;110.13;;;15.00;;
75488;SDS011;64069;46.396;48.102;2024-03-17T05:04:17;112.72;;;15.45;;
75488;SDS011;64069;46.396;48.102;2024-03-17T05:06:44;133.43;;;14.77;;
75488;SDS011;64069;46.396;48.102;2024-03-17T05:09:13;116.45;;;15.55;;
75488;SDS011;64069;46.396;48.102;2024-03-17T05:11:39;131.88;;;14.88;;
75488;SDS011;64069;46.396;48.102;2024-03-17T05:14:06;92.90;;;12.95;;
75488;SDS011;64069;46.396;48.102;2024-03-17T05:16:32;100.40;;;12.13;;
75488;SDS011;64069;46.396;48.102;2024-03-17T05:18:58;85.15;;;10.15;;
75488;SDS011;64069;46.396;48.102;2024-03-17T05:21:24;100.63;;;11.30;;
75488;SDS011;64069;46.396;48.102;2024-03-17T05:23:51;115.75;;;14.45;;
75488;SDS011;64069;46.396;48.102;2024-03-17T05:26:17;95.13;;;12.07;;
75488;SDS011;64069;46.396;48.102;2024-03-17T05:28:43;74.25;;;9.57;;
75488;SDS011;64069;46.396;48.102;2024-03-17T05:31:10;97.45;;;13.00;;
75488;SDS011;64069;46.396;48.102;2024-03-17T05:33:40;102.88;;;12.40;;
75488;SDS011;64069;46.396;48.102;2024-03-17T05:36:06;98.82;;;11.18;;
75488;SDS011;64069;46.396;48.102;2024-03-17T05:38:32;81.53;;;10.70;;
75488;SDS011;64069;46.396;48.102;2024-03-17T05:41:05;98.13;;;10.07;;
75488;SDS011;64069;46.396;48.102;2024-03-17T05:43:33;96.60;;;11.73;;
75488;SDS011;64069;46.396;48.102;2024-03-17T05:46:07;101.30;;;11.63;;
75488;SDS011;64069;46.396;48.102;2024-03-17T05:48:34;88.07;;;11.18;;
75488;SDS011;64069;46.396;48.102;2024-03-17T05:51:04;100.20;;;11.45;;
75488;SDS011;64069;46.396;48.102;2024-03-17T05:53:31;95.65;;;11.00;;
75488;SDS011;64069;46.396;48.102;2024-03-17T05:56:00;81.80;;;12.00;;
75488;SDS011;64069;46.396;48.102;2024-03-17T05:58:27;85.07;;;8.40;;
75488;SDS011;64069;46.396;48.102;2024-03-17T06:00:53;74.93;;;10.10;;
75488;SDS011;64069;46.396;48.102;2024-03-17T06:03:19;110.57;;;13.15;;
75488;SDS011;64069;46.396;48.102;2024-03-17T06:05:47;92.95;;;12.10;;
75488;SDS011;64069;46.396;48.102;2024-03-17T06:08:14;92.75;;;10.43;;
75488;SDS011;64069;46.396;48.102;2024-03-17T06:10:44;104.72;;;11.88;;
75488;SDS011;64069;46.396;48.102;2024-03-17T06:13:12;73.18;;;10.13;;
75488;SDS011;64069;46.396;48.102;2024-03-17T06:15:38;88.63;;;10.40;;
75488;SDS011;64069;46.396;48.102;2024-03-17T06:18:05;123.35;;;13.52;;
75488;SDS011;64069;46.396;48.102;2024-03-17T06:20:34;70.53;;;10.48;;
75488;SDS011;64069;46.396;48.102;2024-03-17T06:23:00;103.45;;;10.25;;
75488;SDS011;64069;46.396;48.102;2024-03-17T06:25:26;77.25;;;10.30;;
75488;SDS011;64069;46.396;48.102;2024-03-17T06:27:53;80.78;;;11.30;;
75488;SDS011;64069;46.396;48.102;2024-03-17T06:30:20;100.50;;;9.88;;
75488;SDS011;64069;46.396;48.102;2024-03-17T06:32:46;85.60;;;11.02;;
75488;SDS011;64069;46.396;48.102;2024-03-17T06:35:13;74.68;;;8.50;;
75488;SDS011;64069;46.396;48.102;2024-03-17T06:37:51;76.90;;;9.38;;
75488;SDS011;64069;46.396;48.102;2024-03-17T06:40:17;79.05;;;8.05;;
75488;SDS011;64069;46.396;48.102;2024-03-17T06:42:44;65.63;;;10.70;;
75488;SDS011;64069;46.396;48.102;2024-03-17T06:45:10;65.55;;;8.00;;
75488;SDS011;64069;46.396;48.102;2024-03-17T06:47:36;74.57;;;10.82;;
75488;SDS011;64069;46.396;48.102;2024-03-17T06:50:03;61.67;;;8.35;;
75488;SDS011;64069;46.396;48.102;2024-03-17T06:52:30;80.20;;;7.68;;
75488;SDS011;64069;46.396;48.102;2024-03-17T06:54:58;59.38;;;9.45;;
75488;SDS011;64069;46.396;48.102;2024-03-17T06:57:24;71.30;;;8.27;;
75488;SDS011;64069;46.396;48.102;2024-03-17T06:59:51;71.40;;;10.00;;
75488;SDS011;64069;46.396;48.102;2024-03-17T07:02:17;73.88;;;8.65;;
75488;SDS011;64069;46.396;48.102;2024-03-17T07:04:45;97.38;;;9.77;;
75488;SDS011;64069;46.396;48.102;2024-03-17T07:07:12;85.85;;;10.68;;
75488;SDS011;64069;46.396;48.102;2024-03-17T07:09:39;90.43;;;10.75;;
75488;SDS011;64069;46.396;48.102;2024-03-17T07:12:07;78.53;;;10.18;;
75488;SDS011;64069;46.396;48.102;2024-03-17T07:14:34;80.45;;;24.83;;
75488;SDS011;64069;46.396;48.102;2024-03-17T07:17:00;130.77;;;35.88;;
75488;SDS011;64069;46.396;48.102;2024-03-17T07:19:26;111.82;;;34.97;;
75488;SDS011;64069;46.396;48.102;2024-03-17T07:21:52;68.07;;;11.15;;
75488;SDS011;64069;46.396;48.102;2024-03-17T07:24:19;105.93;;;24.33;;
75488;SDS011;64069;46.396;48.102;2024-03-17T07:26:47;89.38;;;20.60;;
75488;SDS011;64069;46.396;48.102;2024-03-17T07:29:14;98.18;;;29.25;;
75488;SDS011;64069;46.396;48.102;2024-03-17T07:31:40;86.00;;;14.57;;
75488;SDS011;64069;46.396;48.102;2024-03-17T07:34:06;65.80;;;10.82;;
75488;SDS011;64069;46.396;48.102;2024-03-17T07:36:32;88.22;;;12.85;;
75488;SDS011;64069;46.396;48.102;2024-03-17T07:38:58;68.45;;;10.60;;
75488;SDS011;64069;46.396;48.102;2024-03-17T07:41:24;77.03;;;12.23;;
75488;SDS011;64069;46.396;48.102;2024-03-17T07:43:50;63.17;;;10.00;;
75488;SDS011;64069;46.396;48.102;2024-03-17T07:46:16;54.03;;;9.50;;
75488;SDS011;64069;46.396;48.102;2024-03-17T07:48:44;62.42;;;13.52;;
75488;SDS011;64069;46.396;48.102;2024-03-17T07:51:11;51.22;;;7.93;;
75488;SDS011;64069;46.396;48.102;2024-03-17T07:53:39;48.95;;;7.78;;
75488;SDS011;64069;46.396;48.102;2024-03-17T07:56:09;62.10;;;9.00;;
75488;SDS011;64069;46.396;48.102;2024-03-17T07:58:38;84.55;;;11.20;;
75488;SDS011;64069;46.396;48.102;2024-03-17T08:01:15;69.25;;;9.25;;
75488;SDS011;64069;46.396;48.102;2024-03-17T08:03:45;75.55;;;10.95;;
75488;SDS011;64069;46.396;48.102;2024-03-17T08:06:14;61.78;;;8.52;;
75488;SDS011;64069;46.396;48.102;2024-03-17T08:08:40;61.88;;;9.35;;
75488;SDS011;64069;46.396;48.102;2024-03-17T08:11:06;42.45;;;7.80;;
75488;SDS011;64069;46.396;48.102;2024-03-17T08:13:32;88.32;;;12.70;;
75488;SDS011;64069;46.396;48.102;2024-03-17T08:16:01;68.43;;;7.45;;
75488;SDS011;64069;46.396;48.102;2024-03-17T08:18:28;74.78;;;10.13;;
75488;SDS011;64069;46.396;48.102;2024-03-17T08:20:54;71.30;;;8.63;;
75488;SDS011;64069;46.396;48.102;2024-03-17T08:23:21;50.28;;;7.68;;
75488;SDS011;64069;46.396;48.102;2024-03-17T08:25:52;49.25;;;5.65;;
75488;SDS011;64069;46.396;48.102;2024-03-17T08:28:19;66.85;;;7.22;;
75488;SDS011;64069;46.396;48.102;2024-03-17T08:30:56;51.42;;;8.48;;
75488;SDS011;64069;46.396;48.102;2024-03-17T08:33:24;51.20;;;7.03;;
75488;SDS011;64069;46.396;48.102;2024-03-17T08:35:57;73.65;;;7.45;;
75488;SDS011;64069;46.396;48.102;2024-03-17T08:38:31;67.15;;;8.73;;
75488;SDS011;64069;46.396;48.102;2024-03-17T08:40:58;45.08;;;7.32;;
75488;SDS011;64069;46.396;48.102;2024-03-17T08:43:34;55.50;;;7.60;;
75488;SDS011;64069;46.396;48.102;2024-03-17T08:46:02;61.83;;;7.75;;
75488;SDS011;64069;46.396;48.102;2024-03-17T08:48:30;67.50;;;8.93;;
75488;SDS011;64069;46.396;48.102;2024-03-17T08:50:58;60.00;;;8.15;;
75488;SDS011;64069;46.396;48.102;2024-03-17T08:53:25;61.85;;;7.45;;
75488;SDS011;64069;46.396;48.102;2024-03-17T08:55:52;56.28;;;6.22;;
75488;SDS011;64069;46.396;48.102;2024-03-17T08:58:18;59.67;;;7.97;;
75488;SDS011;64069;46.396;48.102;2024-03-17T09:00:44;55.38;;;6.80;;
75488;SDS011;64069;46.396;48.102;2024-03-17T09:03:11;55.83;;;6.22;;
75488;SDS011;64069;46.396;48.102;2024-03-17T09:05:38;42.90;;;5.97;;
75488;SDS011;64069;46.396;48.102;2024-03-17T09:08:18;73.22;;;11.75;;
75488;SDS011;64069;46.396;48.102;2024-03-17T09:10:50;48.53;;;5.88;;
75488;SDS011;64069;46.396;48.102;2024-03-17T09:13:21;34.60;;;5.93;;
75488;SDS011;64069;46.396;48.102;2024-03-17T09:15:59;50.08;;;6.90;;
75488;SDS011;64069;46.396;48.102;2024-03-17T09:18:26;40.28;;;7.70;;
75488;SDS011;64069;46.396;48.102;2024-03-17T09:20:59;50.88;;;6.60;;
75488;SDS011;64069;46.396;48.102;2024-03-17T09:23:26;55.28;;;6.30;;
75488;SDS011;64069;46.396;48.102;2024-03-17T09:26:00;35.58;;;5.28;;
75488;SDS011;64069;46.396;48.102;2024-03-17T09:28:38;48.40;;;4.95;;
75488;SDS011;64069;46.396;48.102;2024-03-17T09:31:04;37.40;;;6.40;;
75488;SDS011;64069;46.396;48.102;2024-03-17T09:33:34;42.83;;;5.75;;
75488;SDS011;64069;46.396;48.102;2024-03-17T09:36:05;30.15;;;6.28;;
75488;SDS011;64069;46.396;48.102;2024-03-17T09:38:32;36.05;;;6.55;;
75488;SDS011;64069;46.396;48.102;2024-03-17T09:40:59;33.05;;;4.00;;
75488;SDS011;64069;46.396;48.102;2024-03-17T09:43:29;37.50;;;6.18;;
75488;SDS011;64069;46.396;48.102;2024-03-17T09:45:58;46.20;;;6.05;;
75488;SDS011;64069;46.396;48.102;2024-03-17T09:48:25;35.95;;;4.20;;
75488;SDS011;64069;46.396;48.102;2024-03-17T09:50:54;29.23;;;4.45;;
75488;SDS011;64069;46.396;48.102;2024-03-17T09:53:39;30.25;;;4.85;;
75488;SDS011;64069;46.396;48.102;2024-03-17T09:56:08;40.85;;;5.40;;
75488;SDS011;64069;46.396;48.102;2024-03-17T09:58:42;28.63;;;3.67;;
75488;SDS011;64069;46.396;48.102;2024-03-17T10:01:08;31.23;;;5.03;;
75488;SDS011;64069;46.396;48.102;2024-03-17T10:03:45;31.85;;;5.30;;
75488;SDS011;64069;46.396;48.102;2024-03-17T10:06:14;32.05;;;5.90;;
75488;SDS011;64069;46.396;48.102;2024-03-17T10:08:42;26.70;;;6.85;;
75488;SDS011;64069;46.396;48.102;2024-03-17T10:11:08;31.67;;;6.65;;
75488;SDS011;64069;46.396;48.102;2024-03-17T10:13:35;32.20;;;5.13;;
75488;SDS011;64069;46.396;48.102;2024-03-17T10:16:01;27.48;;;5.05;;
75488;SDS011;64069;46.396;48.102;2024-03-17T10:18:27;20.60;;;3.80;;
75488;SDS011;64069;46.396;48.102;2024-03-17T10:20:53;26.13;;;3.88;;
75488;SDS011;64069;46.396;48.102;2024-03-17T10:23:22;22.88;;;3.75;;
75488;SDS011;64069;46.396;48.102;2024-03-17T10:25:49;25.27;;;3.75;;
75488;SDS011;64069;46.396;48.102;2024-03-17T10:28:16;25.88;;;5.10;;
75488;SDS011;64069;46.396;48.102;2024-03-17T10:30:56;24.13;;;3.53;;
75488;SDS011;64069;46.396;48.102;2024-03-17T10:33:24;21.58;;;3.80;;
75488;SDS011;64069;46.396;48.102;2024-03-17T10:36:00;21.15;;;2.83;;
75488;SDS011;64069;46.396;48.102;2024-03-17T10:38:27;22.67;;;3.22;;
75488;SDS011;64069;46.396;48.102;2024-03-17T10:40:54;16.52;;;3.33;;
75488;SDS011;64069;46.396;48.102;2024-03-17T10:43:20;17.67;;;3.60;;
75488;SDS011;64069;46.396;48.102;2024-03-17T10:45:51;14.85;;;1.90;;
75488;SDS011;64069;46.396;48.102;2024-03-17T10:48:20;23.27;;;3.55;;
75488;SDS011;64069;46.396;48.102;2024-03-17T10:50:47;13.02;;;3.00;;
75488;SDS011;64069;46.396;48.102;2024-03-17T10:53:15;14.25;;;2.83;;
75488;SDS011;64069;46.396;48.102;2024-03-17T10:55:51;17.88;;;2.97;;
75488;SDS011;64069;46.396;48.102;2024-03-17T10:58:40;20.85;;;3.65;;
75488;SDS011;64069;46.396;48.102;2024-03-17T11:01:15;19.13;;;5.32;;
75488;SDS011;64069;46.396;48.102;2024-03-17T11:03:43;14.98;;;2.35;;
75488;SDS011;64069;46.396;48.102;2024-03-17T11:06:12;20.90;;;3.30;;
75488;SDS011;64069;46.396;48.102;2024-03-17T11:08:38;18.75;;;4.70;;
75488;SDS011;64069;46.396;48.102;2024-03-17T11:11:07;20.67;;;4.43;;
75488;SDS011;64069;46.396;48.102;2024-03-17T11:13:34;13.43;;;3.58;;
75488;SDS011;64069;46.396;48.102;2024-03-17T11:16:04;22.00;;;4.18;;
75488;SDS011;64069;46.396;48.102;2024-03-17T11:18:51;20.02;;;3.78;;
75488;SDS011;64069;46.396;48.102;2024-03-17T11:23:56;17.33;;;2.95;;
75488;SDS011;64069;46.396;48.102;2024-03-17T11:26:26;17.10;;;3.53;;
75488;SDS011;64069;46.396;48.102;2024-03-17T11:28:57;20.90;;;7.28;;
75488;SDS011;64069;46.396;48.102;2024-03-17T11:31:37;17.35;;;2.83;;
75488;SDS011;64069;46.396;48.102;2024-03-17T11:34:27;26.98;;;6.50;;
75488;SDS011;64069;46.396;48.102;2024-03-17T11:36:57;9.55;;;2.33;;
75488;SDS011;64069;46.396;48.102;2024-03-17T11:42:18;14.38;;;2.88;;
75488;SDS011;64069;46.396;48.102;2024-03-17T11:44:55;17.83;;;2.78;;
75488;SDS011;64069;46.396;48.102;2024-03-17T11:47:28;19.08;;;3.85;;
75488;SDS011;64069;46.396;48.102;2024-03-17T11:50:01;9.52;;;2.70;;
75488;SDS011;64069;46.396;48.102;2024-03-17T11:52:28;13.38;;;2.72;;
75488;SDS011;64069;46.396;48.102;2024-03-17T11:54:54;15.55;;;3.75;;
75488;SDS011;64069;46.396;48.102;2024-03-17T11:57:21;13.07;;;3.38;;
75488;SDS011;64069;46.396;48.102;2024-03-17T11:59:48;18.58;;;3.95;;
75488;SDS011;64069;46.396;48.102;2024-03-17T12:02:29;14.13;;;2.70;;
75488;SDS011;64069;46.396;48.102;2024-03-17T12:04:57;9.15;;;2.28;;
75488;SDS011;64069;46.396;48.102;2024-03-17T12:07:24;6.28;;;2.20;;
75488;SDS011;64069;46.396;48.102;2024-03-17T12:09:53;7.57;;;2.60;;
75488;SDS011;64069;46.396;48.102;2024-03-17T12:12:21;13.00;;;4.32;;
75488;SDS011;64069;46.396;48.102;2024-03-17T12:14:48;16.25;;;2.83;;
75488;SDS011;64069;46.396;48.102;2024-03-17T12:17:22;12.20;;;2.80;;
75488;SDS011;64069;46.396;48.102;2024-03-17T12:19:50;16.92;;;5.82;;
75488;SDS011;64069;46.396;48.102;2024-03-17T12:22:18;8.88;;;3.67;;
75488;SDS011;64069;46.396;48.102;2024-03-17T12:24:52;13.98;;;2.58;;
75488;SDS011;64069;46.396;48.102;2024-03-17T12:27:22;12.98;;;3.47;;
75488;SDS011;64069;46.396;48.102;2024-03-17T12:29:53;28.85;;;9.90;;
75488;SDS011;64069;46.396;48.102;2024-03-17T12:34:49;13.23;;;3.55;;
75488;SDS011;64069;46.396;48.102;2024-03-17T12:37:19;23.63;;;7.10;;
75488;SDS011;64069;46.396;48.102;2024-03-17T12:39:50;15.68;;;4.25;;
75488;SDS011;64069;46.396;48.102;2024-03-17T12:42:22;9.65;;;3.95;;
75488;SDS011;64069;46.396;48.102;2024-03-17T12:44:53;12.27;;;3.53;;
75488;SDS011;64069;46.396;48.102;2024-03-17T12:47:20;15.77;;;5.35;;
75488;SDS011;64069;46.396;48.102;2024-03-17T12:49:51;9.52;;;2.25;;
75488;SDS011;64069;46.396;48.102;2024-03-17T12:52:19;26.73;;;9.55;;
75488;SDS011;64069;46.396;48.102;2024-03-17T12:57:43;12.73;;;4.32;;
75488;SDS011;64069;46.396;48.102;2024-03-17T13:00:28;9.80;;;4.43;;
75488;SDS011;64069;46.396;48.102;2024-03-17T13:02:57;16.58;;;4.60;;
75488;SDS011;64069;46.396;48.102;2024-03-17T13:05:26;11.05;;;4.00;;
75488;SDS011;64069;46.396;48.102;2024-03-17T13:07:53;11.85;;;3.97;;
75488;SDS011;64069;46.396;48.102;2024-03-17T13:10:23;19.85;;;4.97;;
75488;SDS011;64069;46.396;48.102;2024-03-17T13:13:00;16.40;;;5.63;;
75488;SDS011;64069;46.396;48.102;2024-03-17T13:15:34;16.27;;;6.13;;
75488;SDS011;64069;46.396;48.102;2024-03-17T13:18:01;26.10;;;11.07;;
75488;SDS011;64069;46.396;48.102;2024-03-17T13:20:29;26.58;;;11.13;;
75488;SDS011;64069;46.396;48.102;2024-03-17T13:22:56;19.52;;;5.82;;
75488;SDS011;64069;46.396;48.102;2024-03-17T13:25:23;18.58;;;5.68;;
75488;SDS011;64069;46.396;48.102;2024-03-17T13:28:02;28.67;;;10.93;;
75488;SDS011;64069;46.396;48.102;2024-03-17T13:30:29;31.23;;;10.52;;
75488;SDS011;64069;46.396;48.102;2024-03-17T13:32:55;23.10;;;8.77;;
75488;SDS011;64069;46.396;48.102;2024-03-17T13:35:26;18.80;;;6.68;;
75488;SDS011;64069;46.396;48.102;2024-03-17T13:37:56;19.02;;;6.57;;
75488;SDS011;64069;46.396;48.102;2024-03-17T13:40:26;13.80;;;6.35;;
75488;SDS011;64069;46.396;48.102;2024-03-17T13:42:53;17.52;;;5.22;;
75488;SDS011;64069;46.396;48.102;2024-03-17T13:45:20;11.57;;;4.38;;
75488;SDS011;64069;46.396;48.102;2024-03-17T13:47:57;10.95;;;4.05;;
75488;SDS011;64069;46.396;48.102;2024-03-17T13:50:24;16.25;;;6.10;;
75488;SDS011;64069;46.396;48.102;2024-03-17T13:52:51;12.02;;;4.95;;
75488;SDS011;64069;46.396;48.102;2024-03-17T13:57:45;12.10;;;5.03;;
75488;SDS011;64069;46.396;48.102;2024-03-17T14:00:13;15.65;;;5.88;;
75488;SDS011;64069;46.396;48.102;2024-03-17T14:02:46;18.27;;;5.05;;
75488;SDS011;64069;46.396;48.102;2024-03-17T14:05:13;11.20;;;4.90;;
75488;SDS011;64069;46.396;48.102;2024-03-17T14:07:44;9.68;;;4.22;;
75488;SDS011;64069;46.396;48.102;2024-03-17T14:10:12;11.77;;;3.67;;
75488;SDS011;64069;46.396;48.102;2024-03-17T14:12:39;14.23;;;6.15;;
75488;SDS011;64069;46.396;48.102;2024-03-17T14:15:05;22.27;;;8.85;;
75488;SDS011;64069;46.396;48.102;2024-03-17T14:17:33;12.02;;;5.57;;
75488;SDS011;64069;46.396;48.102;2024-03-17T14:19:59;14.65;;;5.93;;
75488;SDS011;64069;46.396;48.102;2024-03-17T14:22:25;20.30;;;7.30;;
75488;SDS011;64069;46.396;48.102;2024-03-17T14:24:51;18.08;;;5.25;;
75488;SDS011;64069;46.396;48.102;2024-03-17T14:27:17;15.18;;;5.63;;
75488;SDS011;64069;46.396;48.102;2024-03-17T14:29:43;11.23;;;3.60;;
75488;SDS011;64069;46.396;48.102;2024-03-17T14:32:09;12.95;;;3.47;;
75488;SDS011;64069;46.396;48.102;2024-03-17T14:34:35;8.05;;;2.67;;
75488;SDS011;64069;46.396;48.102;2024-03-17T14:37:03;10.48;;;3.08;;